Time;durP1;ratioP1;P1;durP2;ratioP2;P2;SDS_P1;SDS_P2;PMS_P1;PMS_P2;Temp;Humidity;BMP_temperature;BMP_pressure;BME280_temperature;BME280_humidity;BME280_pressure;Samples;Min_cycle;Max_cycle;Signal;HPM_P1;HPM_P2
2021/09/19 00:00:13;;;;;;;0.70;0.60;;;;;;;13.84;100.00;15810.00;6251632;22;20386;-71
2021/09/19 00:02:43;;;;;;;0.70;0.70;;;;;;;13.83;100.00;17189.81;6250294;22;20411;-70
2021/09/19 00:05:10;;;;;;;0.70;0.60;;;;;;;13.80;100.00;18722.50;6277981;22;20415;-70
2021/09/19 00:07:37;;;;;;;0.70;0.60;;;;;;;13.73;100.00;19785.19;6277929;22;20476;-70
2021/09/19 00:10:07;;;;;;;0.70;0.60;;;;;;;13.70;100.00;20696.47;6251153;22;20412;-71
2021/09/19 00:12:35;;;;;;;0.70;0.60;;;;;;;13.70;100.00;21474.03;6250573;22;20492;-70
2021/09/19 00:15:05;;;;;;;0.70;0.70;;;;;;;13.79;100.00;22426.38;6278215;22;20467;-70
2021/09/19 00:17:32;;;;;;;0.70;0.70;;;;;;;13.82;100.00;22920.06;6277379;22;20867;-71
2021/09/19 00:20:02;;;;;;;1.67;1.00;;;;;;;13.84;100.00;23722.19;6277975;22;20704;-70
2021/09/19 00:22:29;;;;;;;0.70;0.60;;;;;;;13.74;100.00;23819.69;6277707;22;20374;-71
2021/09/19 00:24:56;;;;;;;0.70;0.60;;;;;;;13.72;100.00;24512.84;6251146;22;20905;-71
2021/09/19 00:27:27;;;;;;;0.70;0.60;;;;;;;13.67;100.00;25210.03;6277024;22;20389;-70
2021/09/19 00:30:01;;;;;;;0.70;0.60;;;;;;;13.68;100.00;25756.56;6251831;22;20842;-70
2021/09/19 00:32:33;;;;;;;0.70;0.70;;;;;;;13.67;100.00;26289.91;6251177;22;20417;-71
2021/09/19 00:35:08;;;;;;;0.70;0.60;;;;;;;13.72;100.00;26846.56;6250356;22;20400;-71
2021/09/19 00:37:39;;;;;;;0.70;0.60;;;;;;;13.80;100.00;27263.94;6251217;22;20926;-71
2021/09/19 00:40:19;;;;;;;0.70;0.70;;;;;;;13.74;100.00;27531.88;6279189;22;20367;-71
2021/09/19 00:42:50;;;;;;;0.70;0.60;;;;;;;13.72;100.00;27745.66;6251390;22;20783;-71
2021/09/19 00:45:23;;;;;;;0.70;0.60;;;;;;;13.73;100.00;27802.13;6277272;22;20371;-70
2021/09/19 00:47:59;;;;;;;0.70;0.60;;;;;;;13.78;100.00;28239.13;6250874;22;20416;-70
2021/09/19 00:50:34;;;;;;;0.70;0.63;;;;;;;13.70;100.00;28429.31;6252747;22;20383;-70
2021/09/19 00:53:33;;;;;;;0.70;0.60;;;;;;;13.64;100.00;28737.53;6250995;22;20435;-70
2021/09/19 00:56:07;;;;;;;0.70;0.60;;;;;;;13.65;100.00;29126.47;6249877;22;20372;-70
2021/09/19 00:58:50;;;;;;;0.70;0.60;;;;;;;13.63;100.00;29370.97;6278340;22;20422;-70
2021/09/19 01:01:21;;;;;;;0.70;0.70;;;;;;;13.66;100.00;29569.13;6250615;22;20868;-71
2021/09/19 01:04:01;;;;;;;0.70;0.60;;;;;;;13.62;100.00;29809.97;6225797;22;20410;-70
2021/09/19 01:06:35;;;;;;;0.70;0.60;;;;;;;13.63;100.00;30106.75;6251346;22;20699;-70
2021/09/19 01:09:06;;;;;;;0.70;0.60;;;;;;;13.62;100.00;30277.72;6251122;22;20464;-71
2021/09/19 01:11:38;;;;;;;0.70;0.70;;;;;;;13.63;100.00;30454.38;6251022;22;20395;-70
2021/09/19 01:14:15;;;;;;;0.70;0.70;;;;;;;13.64;100.00;30557.19;6250068;22;20786;-70
2021/09/19 01:16:46;;;;;;;0.70;0.60;;;;;;;13.71;100.00;30778.81;6251110;22;20437;-71
2021/09/19 01:19:24;;;;;;;0.70;0.60;;;;;;;13.74;100.00;30954.13;6277823;22;20419;-70
2021/09/19 01:21:57;;;;;;;0.70;0.63;;;;;;;13.77;100.00;31099.38;6250783;22;20841;-71
2021/09/19 01:24:28;;;;;;;0.70;0.70;;;;;;;13.90;100.00;31395.66;6250730;22;20410;-71
2021/09/19 01:26:57;;;;;;;0.80;0.80;;;;;;;14.00;100.00;31759.75;6250083;22;20843;-70
2021/09/19 01:29:24;;;;;;;0.70;0.60;;;;;;;14.08;100.00;31784.34;6276968;22;20375;-70
2021/09/19 01:31:52;;;;;;;0.70;0.60;;;;;;;14.04;100.00;31838.28;6249707;22;20459;-71
2021/09/19 01:34:19;;;;;;;0.70;0.60;;;;;;;13.98;100.00;31446.41;6224754;22;20488;-71
2021/09/19 01:36:46;;;;;;;0.70;0.60;;;;;;;13.95;100.00;31183.69;6277433;22;20393;-70
2021/09/19 01:39:13;;;;;;;2.30;1.70;;;;;;;13.90;100.00;30971.03;6276626;22;20516;-70
2021/09/19 01:41:42;;;;;;;0.70;0.60;;;;;;;13.95;100.00;30881.84;6276643;22;20428;-70
2021/09/19 01:44:09;;;;;;;0.70;0.70;;;;;;;13.94;100.00;30773.56;6250047;22;20380;-70
2021/09/19 01:46:37;;;;;;;0.70;0.60;;;;;;;13.92;100.00;30422.31;6277366;22;20389;-71
2021/09/19 01:49:07;;;;;;;0.70;0.60;;;;;;;13.81;100.00;30116.59;6249669;22;20409;-70
2021/09/19 01:51:38;;;;;;;0.70;0.70;;;;;;;13.69;100.00;29934.03;6249766;22;20402;-70
2021/09/19 01:54:05;;;;;;;0.70;0.60;;;;;;;13.64;100.00;29785.25;6250002;22;20501;-70
2021/09/19 01:56:32;;;;;;;0.70;0.67;;;;;;;13.48;100.00;29582.41;6276341;22;20704;-71
2021/09/19 01:59:01;;;;;;;0.80;0.73;;;;;;;13.40;100.00;29430.09;6276033;22;20408;-71
2021/09/19 02:01:30;;;;;;;0.70;0.67;;;;;;;13.44;100.00;29899.84;6249769;22;20517;-70
2021/09/19 02:03:57;;;;;;;0.70;0.70;;;;;;;13.41;100.00;29777.81;6250494;22;20490;-70
2021/09/19 02:06:25;;;;;;;0.70;0.60;;;;;;;13.40;100.00;29644.41;6276540;22;20382;-70
2021/09/19 02:08:52;;;;;;;0.80;0.70;;;;;;;13.39;100.00;29695.22;6277085;22;20441;-70
2021/09/19 02:11:21;;;;;;;0.70;0.63;;;;;;;13.45;100.00;29836.25;6224673;22;20413;-70
2021/09/19 02:13:49;;;;;;;0.70;0.70;;;;;;;13.41;100.00;29926.00;6249659;22;20397;-70
2021/09/19 02:16:22;;;;;;;0.70;0.63;;;;;;;13.28;100.00;29548.59;6250064;22;20371;-71
2021/09/19 02:18:50;;;;;;;0.70;0.60;;;;;;;13.19;100.00;29331.66;6280642;22;20502;-71
2021/09/19 02:21:18;;;;;;;0.70;0.70;;;;;;;13.14;100.00;29150.44;6253172;22;20400;-70
2021/09/19 02:23:45;;;;;;;0.70;0.70;;;;;;;13.07;100.00;28927.06;6253212;22;20430;-70
2021/09/19 02:26:12;;;;;;;0.70;0.70;;;;;;;13.13;100.00;29034.72;6279289;22;20851;-71
2021/09/19 02:28:39;;;;;;;0.70;0.60;;;;;;;13.12;100.00;29013.75;6254217;22;20387;-70
2021/09/19 02:31:10;;;;;;;0.70;0.60;;;;;;;13.03;100.00;28787.31;6280647;22;20364;-70
2021/09/19 02:33:39;;;;;;;0.70;0.70;;;;;;;13.05;100.00;28691.13;6252725;22;20387;-71
2021/09/19 02:36:06;;;;;;;0.70;0.67;;;;;;;13.12;100.00;28709.94;6279925;22;20390;-71
2021/09/19 02:38:35;;;;;;;0.70;0.60;;;;;;;13.01;100.00;28479.66;6252771;22;20430;-71
2021/09/19 02:41:03;;;;;;;0.70;0.70;;;;;;;12.97;100.00;28457.09;6253559;22;20437;-71
2021/09/19 02:43:29;;;;;;;0.70;0.60;;;;;;;12.97;100.00;28329.75;6253292;22;20410;-71
2021/09/19 02:45:57;;;;;;;0.70;0.60;;;;;;;12.95;100.00;28297.81;6279722;22;20386;-72
2021/09/19 02:48:24;;;;;;;0.70;0.60;;;;;;;12.77;100.00;28051.22;6253589;22;20384;-71
2021/09/19 02:50:53;;;;;;;0.70;0.70;;;;;;;12.72;100.00;27472.41;6252075;22;20780;-71
2021/09/19 02:53:20;;;;;;;0.80;0.70;;;;;;;12.71;100.00;27010.06;6227955;22;20424;-71
2021/09/19 02:55:47;;;;;;;0.70;0.60;;;;;;;12.69;100.00;26881.56;6253267;22;20835;-71
2021/09/19 02:58:14;;;;;;;0.70;0.60;;;;;;;12.57;100.00;26465.28;6279379;22;20409;-71
2021/09/19 03:00:41;;;;;;;0.70;0.60;;;;;;;12.49;100.00;25816.78;6252410;22;20472;-72
2021/09/19 03:03:08;;;;;;;0.70;0.60;;;;;;;12.38;100.00;25141.41;6252828;22;20365;-71
2021/09/19 03:05:39;;;;;;;0.70;0.60;;;;;;;12.39;100.00;24594.28;6279817;22;20786;-71
2021/09/19 03:08:07;;;;;;;0.70;0.60;;;;;;;12.40;100.00;24202.34;6279336;22;20490;-71
2021/09/19 03:10:36;;;;;;;0.70;0.60;;;;;;;12.38;100.00;23806.97;6279387;22;20395;-71
2021/09/19 03:13:04;;;;;;;0.70;0.60;;;;;;;12.37;100.00;22617.72;6279865;22;20426;-71
2021/09/19 03:15:32;;;;;;;0.70;0.60;;;;;;;12.22;100.00;21807.13;6227781;22;20433;-71
2021/09/19 03:18:01;;;;;;;0.70;0.70;;;;;;;12.25;100.00;21141.94;6279177;22;20882;-71
2021/09/19 03:20:32;;;;;;;0.70;0.60;;;;;;;12.20;100.00;20394.94;6279424;22;20425;-72
2021/09/19 03:23:00;;;;;;;1.37;1.07;;;;;;;12.23;100.00;19953.53;6252286;22;20420;-71
2021/09/19 03:25:30;;;;;;;0.70;0.60;;;;;;;12.17;100.00;19170.75;6252596;22;20406;-71
2021/09/19 03:27:58;;;;;;;0.70;0.60;;;;;;;12.13;100.00;18305.41;6278743;22;20391;-71
2021/09/19 03:30:28;;;;;;;0.70;0.60;;;;;;;12.17;100.00;17478.59;6278536;22;20766;-71
2021/09/19 03:32:55;;;;;;;0.70;0.60;;;;;;;12.24;100.00;17171.13;6279169;22;20389;-72
2021/09/19 03:35:22;;;;;;;0.70;0.60;;;;;;;12.17;100.00;16345.78;6278455;22;20441;-71
2021/09/19 03:37:49;;;;;;;0.70;0.60;;;;;;;12.11;100.00;15406.72;6278069;22;20407;-71
2021/09/19 03:40:16;;;;;;;0.70;0.60;;;;;;;12.14;100.00;14846.84;6278379;22;20946;-72
2021/09/19 03:42:44;;;;;;;0.70;0.60;;;;;;;12.04;100.00;13755.31;6278298;22;20472;-71
2021/09/19 03:45:15;;;;;;;0.70;0.63;;;;;;;12.05;100.00;13372.53;6278432;22;20375;-71
2021/09/19 03:47:42;;;;;;;0.70;0.60;;;;;;;11.90;100.00;12217.00;6277560;22;20422;-72
2021/09/19 03:50:09;;;;;;;0.70;0.60;;;;;;;11.86;100.00;11262.88;6277927;22;20456;-72
2021/09/19 03:52:36;;;;;;;0.70;0.60;;;;;;;11.88;100.00;10510.63;6277987;22;20727;-72
2021/09/19 03:55:05;;;;;;;0.70;0.60;;;;;;;11.82;100.00;9881.00;6277583;22;20715;-72
2021/09/19 03:57:32;;;;;;;0.70;0.60;;;;;;;11.74;100.00;8775.16;6276849;22;20504;-71
2021/09/19 04:00:02;;;;;;;0.70;0.60;;;;;;;11.65;100.00;7667.13;6278973;22;20717;-71
2021/09/19 04:02:37;;;;;;;0.70;0.60;;;;;;;11.58;100.00;6383.06;6278489;22;20455;-71
2021/09/19 04:05:06;;;;;;;0.70;0.60;;;;;;;11.59;100.00;5343.84;6277727;22;20386;-71
2021/09/19 04:07:33;;;;;;;0.70;0.70;;;;;;;11.52;100.00;4053.50;6250803;22;20432;-71
2021/09/19 04:10:01;;;;;;;0.70;0.60;;;;;;;11.51;100.00;2992.00;6250472;22;20433;-70
2021/09/19 04:12:28;;;;;;;0.70;0.60;;;;;;;11.50;100.00;1913.22;6225205;22;20949;-71
2021/09/19 04:14:55;;;;;;;0.70;0.60;;;;;;;11.54;100.00;1027.16;6277601;22;20460;-71
2021/09/19 04:17:26;;;;;;;0.70;0.60;;;;;;;11.47;100.00;-134.69;6250675;22;20497;-71
2021/09/19 04:19:53;;;;;;;0.90;0.90;;;;;;;11.50;100.00;-1270.19;6278580;22;20411;-71
2021/09/19 04:22:23;;;;;;;0.70;0.60;;;;;;;11.53;100.00;-2115.28;6250848;22;20496;-71
2021/09/19 04:24:51;;;;;;;0.70;0.60;;;;;;;11.46;100.00;-3147.03;6278102;22;20379;-71
2021/09/19 04:27:21;;;;;;;0.70;0.60;;;;;;;11.47;100.00;-3840.41;6250721;22;20783;-71
2021/09/19 04:29:48;;;;;;;0.70;0.60;;;;;;;11.44;100.00;-4465.59;6277486;22;20387;-71
2021/09/19 04:32:15;;;;;;;0.70;0.70;;;;;;;11.53;100.00;-4866.47;6277448;22;20405;-71
2021/09/19 04:34:43;;;;;;;0.70;0.70;;;;;;;11.55;100.00;-5521.81;6251154;22;20867;-71
2021/09/19 04:37:13;;;;;;;0.70;0.60;;;;;;;11.54;100.00;-6010.66;6278339;22;20399;-71
2021/09/19 04:39:40;;;;;;;0.70;0.70;;;;;;;11.53;100.00;-6378.50;6250549;22;20411;-71
2021/09/19 04:42:08;;;;;;;0.70;0.60;;;;;;;11.57;100.00;-6950.53;6277062;22;20401;-71
2021/09/19 04:44:37;;;;;;;0.70;0.60;;;;;;;11.62;100.00;-7411.78;6250583;22;20382;-71
2021/09/19 04:47:04;;;;;;;0.70;0.60;;;;;;;11.57;100.00;-7857.34;6277501;22;20703;-71
2021/09/19 04:49:32;;;;;;;0.70;0.60;;;;;;;11.66;100.00;-8545.41;6277536;22;20447;-71
2021/09/19 04:52:01;;;;;;;0.70;0.60;;;;;;;11.77;100.00;-9029.78;6277498;22;20395;-71
2021/09/19 04:54:28;;;;;;;0.70;0.70;;;;;;;11.69;100.00;-9990.88;6250348;22;20501;-71
2021/09/19 04:56:55;;;;;;;0.70;0.60;;;;;;;11.68;100.00;-10851.56;6250291;22;20412;-71
2021/09/19 04:59:22;;;;;;;0.70;0.60;;;;;;;11.74;100.00;-11338.00;6277791;22;20502;-71
2021/09/19 05:01:49;;;;;;;0.70;0.60;;;;;;;11.92;100.00;-11725.13;6277200;22;20427;-71
2021/09/19 05:04:17;;;;;;;0.70;0.60;;;;;;;11.94;100.00;-12128.13;6250942;22;20757;-71
2021/09/19 05:06:44;;;;;;;0.70;0.60;;;;;;;11.99;100.00;-12337.69;6250422;22;20466;-71
2021/09/19 05:09:13;;;;;;;0.70;0.67;;;;;;;11.87;100.00;-12756.19;6224836;22;20454;-71
2021/09/19 05:11:39;;;;;;;0.70;0.60;;;;;;;11.80;100.00;-13273.50;6276969;22;20425;-72
2021/09/19 05:14:07;;;;;;;0.70;0.60;;;;;;;11.80;100.00;-13917.25;6225283;22;20401;-71
2021/09/19 05:16:34;;;;;;;0.70;0.60;;;;;;;11.88;100.00;-14215.22;6277506;22;20420;-71
2021/09/19 05:19:01;;;;;;;1.30;1.20;;;;;;;11.88;100.00;-14748.41;6277088;22;20904;-71
2021/09/19 05:21:29;;;;;;;0.70;0.60;;;;;;;11.99;100.00;-14976.66;6277630;22;20386;-72
2021/09/19 05:23:57;;;;;;;0.70;0.60;;;;;;;12.07;100.00;-15199.31;6276771;22;20400;-71
2021/09/19 05:26:29;;;;;;;0.70;0.60;;;;;;;12.11;100.00;-15388.56;6277011;22;20371;-71
2021/09/19 05:28:57;;;;;;;0.70;0.70;;;;;;;12.16;100.00;-15542.88;6277589;22;20376;-71
2021/09/19 05:31:24;;;;;;;0.70;0.60;;;;;;;12.13;100.00;-15688.19;6250860;22;20481;-71
2021/09/19 05:33:51;;;;;;;0.70;0.60;;;;;;;12.15;100.00;-15683.53;6249988;22;20416;-71
2021/09/19 05:36:18;;;;;;;0.70;0.70;;;;;;;12.19;100.00;-15636.50;6249798;22;20402;-71
2021/09/19 05:38:45;;;;;;;0.70;0.60;;;;;;;12.18;100.00;-15548.28;6276209;22;20417;-72
2021/09/19 05:41:12;;;;;;;0.70;0.60;;;;;;;12.21;100.00;-15508.63;6275963;22;20378;-71
2021/09/19 05:43:42;;;;;;;0.70;0.60;;;;;;;12.38;100.00;-15260.19;6276869;22;20377;-72
2021/09/19 05:46:11;;;;;;;0.70;0.70;;;;;;;12.38;100.00;-15074.00;6251092;22;20864;-71
2021/09/19 05:48:39;;;;;;;0.70;0.60;;;;;;;12.19;100.00;-15216.47;6277181;22;20387;-72
2021/09/19 05:51:06;;;;;;;0.70;0.60;;;;;;;12.35;100.00;-14929.94;6277178;22;20403;-72
2021/09/19 05:53:33;;;;;;;0.70;0.60;;;;;;;12.36;100.00;-14889.88;6277879;22;20890;-71
2021/09/19 05:56:00;;;;;;;0.70;0.60;;;;;;;12.35;100.00;-14862.09;6250340;22;20470;-72
2021/09/19 05:58:27;;;;;;;0.70;0.70;;;;;;;12.38;100.00;-14819.84;6277032;22;20383;-71
2021/09/19 06:00:56;;;;;;;0.70;0.60;;;;;;;12.41;100.00;-15009.09;6277474;22;20557;-71
2021/09/19 06:03:24;;;;;;;0.70;0.70;;;;;;;12.43;100.00;-15097.53;6277286;22;20694;-71
2021/09/19 06:05:52;;;;;;;0.70;0.60;;;;;;;12.54;100.00;-14948.50;6251160;22;20746;-71
2021/09/19 06:08:19;;;;;;;0.70;0.60;;;;;;;12.51;100.00;-15295.25;6277184;22;20409;-72
2021/09/19 06:10:46;;;;;;;0.70;0.60;;;;;;;12.53;100.00;-15547.28;6278027;22;20915;-71
2021/09/19 06:13:13;;;;;;;0.70;0.70;;;;;;;12.56;100.00;-15751.69;6225518;22;20411;-72
2021/09/19 06:15:41;;;;;;;0.70;0.60;;;;;;;12.60;100.00;-15943.50;6249513;22;20389;-71
2021/09/19 06:18:09;;;;;;;0.70;0.60;;;;;;;12.77;100.00;-15987.06;6249797;22;20454;-71
2021/09/19 06:20:36;;;;;;;0.70;0.60;;;;;;;12.86;100.00;-15903.22;6276725;22;20939;-72
2021/09/19 06:23:05;;;;;;;0.70;0.70;;;;;;;12.93;100.00;-15839.09;6250340;22;20418;-72
2021/09/19 06:25:32;;;;;;;0.70;0.60;;;;;;;13.00;100.00;-15570.97;6276099;22;20398;-72
2021/09/19 06:28:03;;;;;;;0.83;0.83;;;;;;;13.10;100.00;-15222.53;6248757;22;20456;-71
2021/09/19 06:30:31;;;;;;;0.70;0.60;;;;;;;13.21;100.00;-14879.34;6276354;22;20399;-72
2021/09/19 06:32:58;;;;;;;0.70;0.60;;;;;;;13.33;100.00;-14359.75;6276792;22;20813;-71
2021/09/19 06:35:27;;;;;;;0.70;0.60;;;;;;;13.59;100.00;-13337.47;6276193;22;20372;-71
2021/09/19 06:37:53;;;;;;;0.70;0.60;;;;;;;13.69;100.00;-12463.44;6248901;22;20925;-71
2021/09/19 06:40:20;;;;;;;0.70;0.60;;;;;;;13.81;100.00;-11510.84;6274771;22;20419;-71
2021/09/19 06:42:49;;;;;;;0.70;0.60;;;;;;;13.87;100.00;-10718.63;6276357;22;20389;-72
2021/09/19 06:45:38;;;;;;;0.70;0.60;;;;;;;13.98;100.00;-9903.75;6276522;22;20376;-71
2021/09/19 06:48:07;;;;;;;0.70;0.60;;;;;;;14.09;100.00;-8997.41;6276226;22;20371;-72
2021/09/19 06:50:35;;;;;;;0.70;0.70;;;;;;;14.10;100.00;-8289.63;6276342;22;20423;-71
2021/09/19 06:53:02;;;;;;;0.70;0.60;;;;;;;14.20;100.00;-7546.75;6248305;22;20915;-71
2021/09/19 06:55:29;;;;;;;0.70;0.60;;;;;;;14.39;100.00;-6178.69;6275113;22;20371;-71
2021/09/19 06:57:57;;;;;;;0.70;0.60;;;;;;;14.53;100.00;-5062.41;6248758;22;20393;-71
2021/09/19 07:00:24;;;;;;;0.70;0.60;;;;;;;14.67;100.00;-3760.28;6249162;22;20450;-71
2021/09/19 07:02:52;;;;;;;0.70;0.70;;;;;;;14.63;100.00;-2853.00;6276902;22;20390;-72
2021/09/19 07:05:19;;;;;;;0.70;0.70;;;;;;;14.90;100.00;-1599.47;6250900;22;20402;-71
2021/09/19 07:07:50;;;;;;;0.70;0.60;;;;;;;15.10;100.00;-101.09;6277870;22;20489;-72
2021/09/19 07:10:19;;;;;;;0.70;0.70;;;;;;;15.20;100.00;1276.06;6252569;22;20367;-71
2021/09/19 07:12:46;;;;;;;0.70;0.60;;;;;;;15.36;100.00;2609.22;6250186;22;20949;-71
2021/09/19 07:15:13;;;;;;;0.70;0.60;;;;;;;15.44;100.00;3912.03;6277519;22;20400;-71
2021/09/19 07:17:40;;;;;;;0.70;0.60;;;;;;;15.58;100.00;5297.97;6278075;22;20375;-71
2021/09/19 07:20:07;;;;;;;0.70;0.60;;;;;;;15.76;100.00;6769.78;6250843;22;20788;-72
2021/09/19 07:22:36;;;;;;;0.70;0.70;;;;;;;15.87;100.00;8063.44;6225858;22;20434;-72
2021/09/19 07:25:06;;;;;;;0.80;0.80;;;;;;;15.81;100.00;8684.00;6277562;22;20398;-71
2021/09/19 07:27:33;;;;;;;0.70;0.60;;;;;;;16.08;100.00;10209.63;6224960;22;20413;-71
2021/09/19 07:30:00;;;;;;;0.70;0.70;;;;;;;16.23;100.00;11241.28;6277754;22;20913;-71
2021/09/19 07:32:31;;;;;;;0.70;0.70;;;;;;;16.37;100.00;11875.53;6277270;22;20373;-72
2021/09/19 07:34:59;;;;;;;0.70;0.70;;;;;;;16.31;100.00;11593.13;6277774;22;20372;-71
2021/09/19 07:37:26;;;;;;;2.13;1.30;;;;;;;16.53;100.00;11547.50;6250453;22;20496;-71
2021/09/19 07:40:01;;;;;;;0.70;0.70;;;;;;;16.42;100.00;9298.88;6252009;22;20412;-71
2021/09/19 07:42:29;;;;;;;0.70;0.60;;;;;;;16.71;100.00;6834.97;6277143;22;20781;-72
2021/09/19 07:44:57;;;;;;;0.70;0.60;;;;;;;16.88;100.00;2004.22;6250985;22;20875;-71
2021/09/19 07:47:26;;;;;;;0.70;0.60;;;;;;;17.04;100.00;-3638.94;6277456;22;20426;-72
2021/09/19 07:49:55;;;;;;;0.70;0.60;;;;;;;17.32;100.00;-14566.69;6250806;22;20870;-71
2021/09/19 07:52:22;;;;;;;0.70;0.70;;;;;;;17.59;100.00;-21159.13;6249823;22;20710;-72
2021/09/19 07:54:54;;;;;;;0.70;0.67;;;;;;;17.73;100.00;-21162.84;6277423;22;20394;-71
2021/09/19 07:57:21;;;;;;;0.77;0.67;;;;;;;18.09;100.00;-21172.56;6277439;22;20822;-71
2021/09/19 07:59:51;;;;;;;0.70;0.70;;;;;;;18.16;100.00;-21174.34;6276989;22;20812;-71
2021/09/19 08:02:21;;;;;;;0.77;0.67;;;;;;;18.61;100.00;-21186.28;6277647;22;20394;-71
2021/09/19 08:04:49;;;;;;;0.70;0.63;;;;;;;18.82;100.00;-21192.16;6251293;22;20824;-71
2021/09/19 08:07:21;;;;;;;0.70;0.60;;;;;;;19.11;100.00;-21199.81;6248255;22;20395;-72
2021/09/19 08:09:50;;;;;;;0.70;0.60;;;;;;;19.63;100.00;-21213.78;6250218;22;20754;-72
2021/09/19 08:12:18;;;;;;;0.70;0.60;;;;;;;19.82;100.00;-21218.69;6277152;22;20464;-72
2021/09/19 08:14:45;;;;;;;0.70;0.60;;;;;;;20.38;100.00;-21233.72;6277435;22;20389;-72
2021/09/19 08:17:16;;;;;;;0.77;0.67;;;;;;;20.77;100.00;-21244.09;6277662;22;20399;-72
2021/09/19 08:19:43;;;;;;;0.70;0.60;;;;;;;20.95;100.00;-21249.16;6250563;22;20470;-72
2021/09/19 08:22:10;;;;;;;0.70;0.60;;;;;;;21.23;100.00;-21256.66;6249777;22;20410;-72
2021/09/19 08:24:37;;;;;;;0.70;0.50;;;;;;;21.28;100.00;-21257.88;6249036;22;20506;-71
2021/09/19 08:27:04;;;;;;;0.70;0.60;;;;;;;21.20;100.00;-21255.69;6249043;22;20441;-71
2021/09/19 08:29:31;;;;;;;0.70;0.60;;;;;;;21.44;100.00;-21262.25;6277222;22;20422;-72
2021/09/19 08:32:00;;;;;;;0.80;0.67;;;;;;;21.91;100.00;-21274.78;6250900;22;20407;-71
2021/09/19 08:34:29;;;;;;;0.70;0.60;;;;;;;22.19;100.00;-21282.28;6277432;22;20816;-71
2021/09/19 08:36:56;;;;;;;0.70;0.60;;;;;;;21.99;100.00;-21276.69;6277210;22;20874;-72
2021/09/19 08:39:23;;;;;;;0.70;0.53;;;;;;;22.03;100.00;-21277.78;6225542;22;20434;-71
2021/09/19 08:41:50;;;;;;;0.70;0.60;;;;;;;22.99;100.00;-21303.53;6249189;22;20513;-72
2021/09/19 08:44:18;;;;;;;0.80;0.60;;;;;;;22.83;100.00;-21299.16;6277191;22;20836;-71
2021/09/19 08:46:46;;;;;;;0.80;0.60;;;;;;;23.22;100.00;-21309.50;6225253;22;20467;-71
2021/09/19 08:49:16;;;;;;;0.70;0.60;;;;;;;23.62;100.00;-21320.25;6277598;22;20784;-72
2021/09/19 08:51:44;;;;;;;0.80;0.60;;;;;;;23.67;100.00;-21321.47;6250658;22;20440;-72
2021/09/19 08:54:12;;;;;;;0.70;0.50;;;;;;;23.86;100.00;-21326.78;6277137;22;20430;-72
2021/09/19 08:56:39;;;;;;;1.00;0.90;;;;;;;24.01;100.00;-21330.72;6276232;22;20902;-71
2021/09/19 08:59:06;;;;;;;0.70;0.50;;;;;;;24.17;100.00;-21334.94;6277001;22;20363;-72
2021/09/19 09:01:33;;;;;;;0.90;0.60;;;;;;;24.22;100.00;-21336.28;6276895;22;20469;-70
2021/09/19 09:04:04;;;;;;;0.70;0.57;;;;;;;25.14;100.00;-21360.72;6249430;22;20752;-69
2021/09/19 09:06:37;;;;;;;0.70;0.60;;;;;;;24.32;100.00;-21338.88;6276928;22;20459;-71
2021/09/19 09:09:15;;;;;;;0.70;0.50;;;;;;;24.35;100.00;-21339.69;6250388;22;20411;-70
2021/09/19 09:11:43;;;;;;;0.80;0.60;;;;;;;24.83;100.00;-21352.44;6249544;22;20405;-69
2021/09/19 09:14:20;;;;;;;1.00;0.90;;;;;;;24.59;100.00;-21346.06;6276546;22;20840;-69
2021/09/19 09:16:48;;;;;;;0.70;0.50;;;;;;;25.24;100.00;-21363.28;6249794;22;20390;-70
2021/09/19 09:19:16;;;;;;;0.70;0.50;;;;;;;25.57;100.00;-21371.97;6276694;22;20855;-69
2021/09/19 09:21:43;;;;;;;1.30;0.60;;;;;;;26.34;100.00;-21392.56;6277102;22;20407;-69
2021/09/19 09:24:16;;;;;;;1.00;0.90;;;;;;;26.30;100.00;-21391.47;6249344;22;20985;-69
2021/09/19 09:26:47;;;;;;;0.80;0.60;;;;;;;25.77;100.00;-21377.38;6248450;22;20399;-69
2021/09/19 09:29:16;;;;;;;0.70;0.50;;;;;;;25.20;100.00;-21362.34;6250260;22;20378;-69
2021/09/19 09:31:46;;;;;;;0.70;0.60;;;;;;;25.11;100.00;-21359.75;6248979;22;20402;-69
2021/09/19 09:34:15;;;;;;;0.70;0.60;;;;;;;24.90;100.00;-21354.19;6276901;22;20379;-70
2021/09/19 09:36:50;;;;;;;0.70;0.50;;;;;;;25.43;100.00;-21368.31;6249506;22;20395;-69
2021/09/19 09:39:29;;;;;;;0.70;0.50;;;;;;;25.25;100.00;-21363.56;6276813;22;20456;-70
2021/09/19 09:41:58;;;;;;;0.70;0.50;;;;;;;24.94;100.00;-21355.41;6275980;22;20414;-70
2021/09/19 09:44:30;;;;;;;0.70;0.50;;;;;;;25.53;100.00;-21371.16;6275826;22;20891;-71
2021/09/19 09:46:58;;;;;;;0.70;0.50;;;;;;;25.44;100.00;-21368.56;6249280;22;20395;-72
2021/09/19 09:49:38;;;;;;;0.70;0.50;;;;;;;24.88;100.00;-21353.78;6248779;22;20482;-70
2021/09/19 09:52:06;;;;;;;0.70;0.60;;;;;;;25.46;100.00;-21369.25;6274959;22;20367;-70
2021/09/19 09:54:49;;;;;;;0.90;0.60;;;;;;;26.00;100.00;-21383.50;6275710;22;20883;-70
2021/09/19 09:57:32;;;;;;;0.70;0.50;;;;;;;26.18;100.00;-21388.34;6249306;22;20417;-69
2021/09/19 10:00:00;;;;;;;0.70;0.50;;;;;;;26.46;100.00;-21395.81;6276604;22;20425;-71
2021/09/19 10:02:31;;;;;;;0.70;0.50;;;;;;;26.59;100.00;-21399.06;6276258;22;20434;-71
2021/09/19 10:05:00;;;;;;;0.70;0.50;;;;;;;26.05;100.00;-21384.69;6276463;22;20372;-70
2021/09/19 10:07:30;;;;;;;0.70;0.50;;;;;;;27.46;100.00;-21422.19;6275747;22;20443;-70
2021/09/19 10:09:58;;;;;;;0.70;0.50;;;;;;;26.86;100.00;-21406.22;6248459;22;20406;-70
2021/09/19 10:12:25;;;;;;;0.70;0.60;;;;;;;25.69;100.00;-21375.22;6276151;22;20736;-72
2021/09/19 10:14:54;;;;;;;0.80;0.60;;;;;;;24.89;100.00;-21354.06;6276569;22;20391;-70
2021/09/19 10:17:25;;;;;;;0.70;0.53;;;;;;;25.37;100.00;-21366.81;6276338;22;20367;-71
2021/09/19 10:19:54;;;;;;;0.80;0.60;;;;;;;24.07;100.00;-21332.22;6275880;22;20421;-70
2021/09/19 10:22:25;;;;;;;0.70;0.60;;;;;;;24.26;100.00;-21337.22;6248295;22;20444;-70
2021/09/19 10:24:52;;;;;;;0.70;0.50;;;;;;;24.79;100.00;-21351.34;6249303;22;20894;-71
2021/09/19 10:27:23;;;;;;;0.70;0.50;;;;;;;25.40;100.00;-21367.50;6249115;22;20374;-70
2021/09/19 10:29:58;;;;;;;0.80;0.60;;;;;;;24.75;100.00;-21350.28;6276612;22;20808;-69
2021/09/19 10:32:32;;;;;;;0.70;0.50;;;;;;;23.78;100.00;-21324.59;6276226;22;20432;-70
2021/09/19 10:35:00;;;;;;;0.70;0.60;;;;;;;24.54;100.00;-21344.84;6249686;22;20371;-69
2021/09/19 10:37:50;;;;;;;0.70;0.50;;;;;;;24.10;100.00;-21333.16;6249528;22;20391;-70
2021/09/19 10:40:32;;;;;;;0.80;0.80;;;;;;;23.61;100.00;-21320.13;6278283;22;20401;-73
2021/09/19 10:43:05;;;;;;;0.70;0.50;;;;;;;22.78;100.00;-21297.94;6278692;22;20363;-71
2021/09/19 10:45:38;;;;;;;0.70;0.60;;;;;;;22.12;100.00;-21280.38;6250866;22;20696;-72
2021/09/19 10:48:15;;;;;;;0.73;0.60;;;;;;;23.64;100.00;-21320.78;6278362;22;20390;-72
2021/09/19 10:50:43;;;;;;;0.70;0.50;;;;;;;25.10;100.00;-21359.63;6278490;22;20572;-72
2021/09/19 10:53:22;;;;;;;0.70;0.50;;;;;;;26.35;100.00;-21392.69;6277484;22;20486;-72
2021/09/19 10:55:53;;;;;;;0.70;0.60;;;;;;;24.72;100.00;-21349.44;6278382;22;20636;-72
2021/09/19 10:58:25;;;;;;;0.80;0.80;;;;;;;24.01;100.00;-21330.72;6250627;22;20398;-72
2021/09/19 11:01:10;;;;;;;0.90;0.80;;;;;;;23.40;100.00;-21314.41;6251336;22;20465;-72
2021/09/19 11:03:40;;;;;;;0.90;0.80;;;;;;;22.97;100.00;-21302.97;6277972;22;20378;-71
2021/09/19 11:06:27;;;;;;;0.70;0.60;;;;;;;22.69;100.00;-21295.34;6278413;22;20367;-71
2021/09/19 11:08:54;;;;;;;0.80;0.60;;;;;;;22.58;100.00;-21292.50;6277793;22;20429;-72
2021/09/19 11:11:27;;;;;;;0.80;0.60;;;;;;;22.35;100.00;-21286.38;6277913;22;20391;-72
2021/09/19 11:14:00;;;;;;;0.80;0.70;;;;;;;22.55;100.00;-21291.69;6250806;22;20378;-71
2021/09/19 11:16:30;;;;;;;0.80;0.63;;;;;;;22.19;100.00;-21282.16;6251004;22;20374;-72
2021/09/19 11:19:00;;;;;;;0.80;0.70;;;;;;;21.96;100.00;-21276.00;6251081;22;20402;-71
2021/09/19 11:21:33;;;;;;;1.23;1.13;;;;;;;21.66;100.00;-21268.13;6277240;22;20426;-72
2021/09/19 11:24:02;;;;;;;0.80;0.70;;;;;;;21.97;100.00;-21276.16;6277640;22;20427;-70
2021/09/19 11:26:31;;;;;;;0.80;0.70;;;;;;;21.88;100.00;-21273.84;6277625;22;20449;-71
2021/09/19 11:29:05;;;;;;;0.80;0.67;;;;;;;21.69;100.00;-21268.94;6251294;22;20374;-71
2021/09/19 11:31:32;;;;;;;0.97;0.90;;;;;;;21.77;100.00;-21270.84;6251150;22;20375;-71